KTVC/TVC METAR and TAF weather

Enter ICAO airport designator
Station Type Date Time Source
KTVC METAR 2019/02/17 15:53 UTC NOAA

KTVC 171553Z 03008KT 10SM SCT120 BKN150 M07/M11 A3005 RMK AO2 SLP187 T10721111


Station Type Date Time Source
KTVC Decoded METAR 2019/02/17 15:53 UTC NOAA

CHERRY CAPITAL AIRPORT, MI, United States (KTVC) 44-44N 085-34W 190M
Feb 17, 2019 - 10:53 AM EST / 2019.02.17 1553 UTC
Wind: from the NNE (030 degrees) at 9 MPH (8 KT):0
Visibility: 10 mile(s):0
Sky conditions: mostly cloudy
Temperature: 19.0 F (-7.2 C)
Windchill: 8 F (-13 C):1
Dew Point: 12.0 F (-11.1 C)
Relative Humidity: 73%
Pressure (altimeter): 30.05 in. Hg (1017 hPa)
ob: KTVC 171553Z 03008KT 10SM SCT120 BKN150 M07/M11 A3005 RMK AO2 SLP187 T10721111
cycle: 16

Station Type Date Time Source
KTVC TAF 2019/02/17 14:21 UTC NOAA

TAF
AMD KTVC 171417Z 1714/1812 05006KT P6SM FEW028 OVC120
FM171800 07006KT P6SM OVC040
FM180100 05006KT P6SM OVC050
FM180300 05006KT P6SM VCSH OVC025
FM180600 03005KT P6SM OVC035


Example: see airport list